sensor_id;sensor_type;location;lat;lon;timestamp;pressure;altitude;pressure_sealevel;temperature;humidity
75681;BME280;64294;49.176;16.626;2023-03-08T00:01:41;97747.06;;;-0.06;100.00
75681;BME280;64294;49.176;16.626;2023-03-08T00:04:08;97748.56;;;-0.11;100.00
75681;BME280;64294;49.176;16.626;2023-03-08T00:06:34;97748.81;;;-0.14;100.00
75681;BME280;64294;49.176;16.626;2023-03-08T00:09:00;97750.56;;;-0.11;100.00
75681;BME280;64294;49.176;16.626;2023-03-08T00:11:27;97760.63;;;-0.14;100.00
75681;BME280;64294;49.176;16.626;2023-03-08T00:13:52;97765.16;;;-0.16;100.00
75681;BME280;64294;49.176;16.626;2023-03-08T00:16:20;97766.91;;;-0.13;100.00
75681;BME280;64294;49.176;16.626;2023-03-08T00:18:46;97770.91;;;-0.14;100.00
75681;BME280;64294;49.176;16.626;2023-03-08T00:21:15;97767.38;;;-0.20;100.00
75681;BME280;64294;49.176;16.626;2023-03-08T00:23:41;97763.13;;;-0.21;100.00
75681;BME280;64294;49.176;16.626;2023-03-08T00:26:08;97753.09;;;-0.24;100.00
75681;BME280;64294;49.176;16.626;2023-03-08T00:28:34;97766.63;;;-0.26;100.00
75681;BME280;64294;49.176;16.626;2023-03-08T00:31:07;97762.88;;;-0.23;100.00
75681;BME280;64294;49.176;16.626;2023-03-08T00:33:34;97772.66;;;-0.22;100.00
75681;BME280;64294;49.176;16.626;2023-03-08T00:38:27;97770.16;;;-0.09;100.00
75681;BME280;64294;49.176;16.626;2023-03-08T00:40:53;97777.94;;;-0.24;100.00
75681;BME280;64294;49.176;16.626;2023-03-08T00:43:19;97772.66;;;-0.34;100.00
75681;BME280;64294;49.176;16.626;2023-03-08T00:45:44;97773.69;;;-0.37;100.00
75681;BME280;64294;49.176;16.626;2023-03-08T00:48:10;97780.94;;;-0.39;100.00
75681;BME280;64294;49.176;16.626;2023-03-08T00:50:35;97774.16;;;-0.55;100.00
75681;BME280;64294;49.176;16.626;2023-03-08T00:53:01;97785.94;;;-0.54;100.00
75681;BME280;64294;49.176;16.626;2023-03-08T00:55:26;97786.66;;;-0.65;100.00
75681;BME280;64294;49.176;16.626;2023-03-08T00:57:51;97780.63;;;-0.69;100.00
75681;BME280;64294;49.176;16.626;2023-03-08T01:00:17;97774.38;;;-0.70;100.00
75681;BME280;64294;49.176;16.626;2023-03-08T01:02:43;97773.59;;;-0.76;100.00
75681;BME280;64294;49.176;16.626;2023-03-08T01:05:08;97774.34;;;-0.75;100.00
75681;BME280;64294;49.176;16.626;2023-03-08T01:07:34;97776.13;;;-0.72;100.00
75681;BME280;64294;49.176;16.626;2023-03-08T01:09:59;97769.84;;;-0.73;100.00
75681;BME280;64294;49.176;16.626;2023-03-08T01:12:27;97773.38;;;-0.67;100.00
75681;BME280;64294;49.176;16.626;2023-03-08T01:14:53;97777.66;;;-0.54;100.00
75681;BME280;64294;49.176;16.626;2023-03-08T01:17:18;97780.13;;;-0.56;100.00
75681;BME280;64294;49.176;16.626;2023-03-08T01:19:44;97788.91;;;-0.58;100.00
75681;BME280;64294;49.176;16.626;2023-03-08T01:22:09;97776.88;;;-0.61;100.00
75681;BME280;64294;49.176;16.626;2023-03-08T01:24:35;97772.66;;;-0.50;100.00
75681;BME280;64294;49.176;16.626;2023-03-08T01:27:00;97774.41;;;-0.47;100.00
75681;BME280;64294;49.176;16.626;2023-03-08T01:29:26;97780.41;;;-0.38;100.00
75681;BME280;64294;49.176;16.626;2023-03-08T01:31:53;97780.22;;;-0.17;100.00
75681;BME280;64294;49.176;16.626;2023-03-08T01:34:19;97780.69;;;0.09;100.00
75681;BME280;64294;49.176;16.626;2023-03-08T01:36:44;97779.19;;;0.14;100.00
75681;BME280;64294;49.176;16.626;2023-03-08T01:39:09;97777.94;;;0.04;100.00
75681;BME280;64294;49.176;16.626;2023-03-08T01:41:35;97786.22;;;-0.02;100.00
75681;BME280;64294;49.176;16.626;2023-03-08T01:44:00;97778.94;;;-0.05;100.00
75681;BME280;64294;49.176;16.626;2023-03-08T01:46:34;97782.22;;;-0.18;100.00
75681;BME280;64294;49.176;16.626;2023-03-08T01:49:13;97778.94;;;-0.27;100.00
75681;BME280;64294;49.176;16.626;2023-03-08T01:54:57;97780.44;;;-0.26;100.00
75681;BME280;64294;49.176;16.626;2023-03-08T01:57:27;97782.94;;;-0.23;100.00
75681;BME280;64294;49.176;16.626;2023-03-08T02:00:06;97785.97;;;-0.21;100.00
75681;BME280;64294;49.176;16.626;2023-03-08T02:02:41;97788.22;;;-0.19;100.00
75681;BME280;64294;49.176;16.626;2023-03-08T02:05:08;97789.75;;;-0.13;100.00
75681;BME280;64294;49.176;16.626;2023-03-08T02:07:34;97802.53;;;-0.04;100.00
75681;BME280;64294;49.176;16.626;2023-03-08T02:10:00;97798.53;;;-0.03;100.00
75681;BME280;64294;49.176;16.626;2023-03-08T02:12:26;97794.78;;;0.00;100.00
75681;BME280;64294;49.176;16.626;2023-03-08T02:14:51;97805.31;;;0.07;100.00
75681;BME280;64294;49.176;16.626;2023-03-08T02:17:17;97804.06;;;0.08;100.00
75681;BME280;64294;49.176;16.626;2023-03-08T02:19:54;97801.03;;;0.12;100.00
75681;BME280;64294;49.176;16.626;2023-03-08T02:22:22;97795.50;;;0.17;100.00
75681;BME280;64294;49.176;16.626;2023-03-08T02:24:47;97805.81;;;0.22;100.00
75681;BME280;64294;49.176;16.626;2023-03-08T02:27:17;97796.25;;;0.23;100.00
75681;BME280;64294;49.176;16.626;2023-03-08T02:29:43;97795.97;;;0.33;100.00
75681;BME280;64294;49.176;16.626;2023-03-08T02:32:08;97796.75;;;0.33;100.00
75681;BME280;64294;49.176;16.626;2023-03-08T02:34:34;97809.06;;;0.38;100.00
75681;BME280;64294;49.176;16.626;2023-03-08T02:37:00;97813.06;;;0.42;100.00
75681;BME280;64294;49.176;16.626;2023-03-08T02:39:25;97821.34;;;0.42;100.00
75681;BME280;64294;49.176;16.626;2023-03-08T02:41:51;97812.31;;;0.42;100.00
75681;BME280;64294;49.176;16.626;2023-03-08T02:44:16;97806.00;;;0.47;100.00
75681;BME280;64294;49.176;16.626;2023-03-08T02:46:41;97804.50;;;0.57;100.00
75681;BME280;64294;49.176;16.626;2023-03-08T02:49:07;97813.03;;;0.59;100.00
75681;BME280;64294;49.176;16.626;2023-03-08T02:51:32;97811.28;;;0.56;100.00
75681;BME280;64294;49.176;16.626;2023-03-08T02:53:58;97811.03;;;0.59;100.00
75681;BME280;64294;49.176;16.626;2023-03-08T02:56:23;97816.03;;;0.61;99.53
75681;BME280;64294;49.176;16.626;2023-03-08T02:58:49;97819.28;;;0.71;99.01
75681;BME280;64294;49.176;16.626;2023-03-08T03:01:14;97815.75;;;0.70;95.06
75681;BME280;64294;49.176;16.626;2023-03-08T03:03:40;97816.25;;;0.74;94.31
75681;BME280;64294;49.176;16.626;2023-03-08T03:06:17;97822.53;;;0.80;94.02
75681;BME280;64294;49.176;16.626;2023-03-08T03:08:43;97821.03;;;0.79;90.71
75681;BME280;64294;49.176;16.626;2023-03-08T03:11:12;97823.25;;;0.86;90.57
75681;BME280;64294;49.176;16.626;2023-03-08T03:13:38;97818.72;;;0.95;88.97
75681;BME280;64294;49.176;16.626;2023-03-08T03:16:07;97813.69;;;0.99;89.96
75681;BME280;64294;49.176;16.626;2023-03-08T03:18:33;97824.75;;;0.99;92.00
75681;BME280;64294;49.176;16.626;2023-03-08T03:21:03;97825.72;;;1.01;89.00
75681;BME280;64294;49.176;16.626;2023-03-08T03:23:29;97827.28;;;0.97;92.08
75681;BME280;64294;49.176;16.626;2023-03-08T03:25:54;97828.28;;;0.94;92.52
75681;BME280;64294;49.176;16.626;2023-03-08T03:28:20;97830.03;;;0.97;92.51
75681;BME280;64294;49.176;16.626;2023-03-08T03:30:46;97826.72;;;1.04;88.73
75681;BME280;64294;49.176;16.626;2023-03-08T03:33:13;97831.25;;;1.07;90.42
75681;BME280;64294;49.176;16.626;2023-03-08T03:35:38;97830.75;;;1.03;88.35
75681;BME280;64294;49.176;16.626;2023-03-08T03:38:04;97829.47;;;1.15;87.12
75681;BME280;64294;49.176;16.626;2023-03-08T03:40:29;97837.25;;;1.11;89.32
75681;BME280;64294;49.176;16.626;2023-03-08T03:42:55;97830.22;;;1.15;88.21
75681;BME280;64294;49.176;16.626;2023-03-08T03:45:20;97836.00;;;1.17;88.40
75681;BME280;64294;49.176;16.626;2023-03-08T03:47:46;97836.25;;;1.14;87.93
75681;BME280;64294;49.176;16.626;2023-03-08T03:50:12;97837.53;;;1.13;88.19
75681;BME280;64294;49.176;16.626;2023-03-08T03:52:37;97839.28;;;1.16;86.67
75681;BME280;64294;49.176;16.626;2023-03-08T03:55:03;97838.22;;;1.25;84.35
75681;BME280;64294;49.176;16.626;2023-03-08T03:57:29;97839.72;;;1.26;85.47
75681;BME280;64294;49.176;16.626;2023-03-08T03:59:55;97848.00;;;1.31;83.66
75681;BME280;64294;49.176;16.626;2023-03-08T04:02:20;97850.47;;;1.40;82.72
75681;BME280;64294;49.176;16.626;2023-03-08T04:04:48;97853.25;;;1.40;84.10
75681;BME280;64294;49.176;16.626;2023-03-08T04:07:14;97851.75;;;1.39;85.34
75681;BME280;64294;49.176;16.626;2023-03-08T04:09:40;97851.94;;;1.47;83.81
75681;BME280;64294;49.176;16.626;2023-03-08T04:12:06;97856.22;;;1.54;82.05
75681;BME280;64294;49.176;16.626;2023-03-08T04:14:31;97848.81;;;1.67;80.50
75681;BME280;64294;49.176;16.626;2023-03-08T04:16:57;97849.50;;;1.79;79.26
75681;BME280;64294;49.176;16.626;2023-03-08T04:19:22;97858.47;;;1.96;76.59
75681;BME280;64294;49.176;16.626;2023-03-08T04:21:48;97853.31;;;2.11;74.85
75681;BME280;64294;49.176;16.626;2023-03-08T04:24:13;97856.56;;;2.16;74.60
75681;BME280;64294;49.176;16.626;2023-03-08T04:26:39;97850.13;;;2.32;72.58
75681;BME280;64294;49.176;16.626;2023-03-08T04:29:04;97847.22;;;2.49;70.87
75681;BME280;64294;49.176;16.626;2023-03-08T04:31:32;97845.34;;;2.62;69.82
75681;BME280;64294;49.176;16.626;2023-03-08T04:34:00;97848.44;;;2.53;70.69
75681;BME280;64294;49.176;16.626;2023-03-08T04:36:26;97848.63;;;2.61;70.42
75681;BME280;64294;49.176;16.626;2023-03-08T04:38:52;97861.84;;;2.73;68.41
75681;BME280;64294;49.176;16.626;2023-03-08T04:41:18;97862.56;;;2.80;67.92
75681;BME280;64294;49.176;16.626;2023-03-08T04:44:01;97862.16;;;2.70;69.28
75681;BME280;64294;49.176;16.626;2023-03-08T04:46:27;97861.19;;;2.67;69.06
75681;BME280;64294;49.176;16.626;2023-03-08T04:48:52;97873.53;;;2.66;68.94
75681;BME280;64294;49.176;16.626;2023-03-08T04:51:21;97867.78;;;2.59;69.33
75681;BME280;64294;49.176;16.626;2023-03-08T04:53:47;97874.81;;;2.65;69.07
75681;BME280;64294;49.176;16.626;2023-03-08T04:56:14;97869.59;;;2.56;68.96
75681;BME280;64294;49.176;16.626;2023-03-08T04:58:40;97872.59;;;2.58;69.02
75681;BME280;64294;49.176;16.626;2023-03-08T05:01:13;97875.34;;;2.58;68.45
75681;BME280;64294;49.176;16.626;2023-03-08T05:03:39;97879.38;;;2.63;68.24
75681;BME280;64294;49.176;16.626;2023-03-08T05:06:05;97877.38;;;2.58;68.26
75681;BME280;64294;49.176;16.626;2023-03-08T05:08:31;97873.16;;;2.51;68.32
75681;BME280;64294;49.176;16.626;2023-03-08T05:10:59;97877.66;;;2.54;67.71
75681;BME280;64294;49.176;16.626;2023-03-08T05:13:26;97883.34;;;2.37;69.00
75681;BME280;64294;49.176;16.626;2023-03-08T05:15:52;97879.66;;;2.29;69.19
75681;BME280;64294;49.176;16.626;2023-03-08T05:18:17;97878.16;;;2.23;69.75
75681;BME280;64294;49.176;16.626;2023-03-08T05:20:43;97891.84;;;2.15;69.78
75681;BME280;64294;49.176;16.626;2023-03-08T05:23:09;97884.91;;;1.97;70.87
75681;BME280;64294;49.176;16.626;2023-03-08T05:25:41;97890.22;;;1.95;70.78
75681;BME280;64294;49.176;16.626;2023-03-08T05:28:07;97898.56;;;1.84;71.32
75681;BME280;64294;49.176;16.626;2023-03-08T05:30:33;97904.22;;;1.62;73.19
75681;BME280;64294;49.176;16.626;2023-03-08T05:32:58;97899.53;;;1.45;76.62
75681;BME280;64294;49.176;16.626;2023-03-08T05:35:23;97896.06;;;1.28;78.35
75681;BME280;64294;49.176;16.626;2023-03-08T05:37:49;97898.63;;;1.20;78.73
75681;BME280;64294;49.176;16.626;2023-03-08T05:40:14;97898.88;;;1.17;80.08
75681;BME280;64294;49.176;16.626;2023-03-08T05:42:40;97909.19;;;1.11;81.99
75681;BME280;64294;49.176;16.626;2023-03-08T05:45:06;97898.94;;;1.00;80.94
75681;BME280;64294;49.176;16.626;2023-03-08T05:47:31;97915.78;;;0.97;81.89
75681;BME280;64294;49.176;16.626;2023-03-08T05:49:57;97909.47;;;1.07;81.52
75681;BME280;64294;49.176;16.626;2023-03-08T05:52:22;97923.25;;;1.24;80.49
75681;BME280;64294;49.176;16.626;2023-03-08T05:54:48;97919.69;;;1.40;80.22
75681;BME280;64294;49.176;16.626;2023-03-08T05:57:13;97930.91;;;1.70;79.01
75681;BME280;64294;49.176;16.626;2023-03-08T05:59:38;97936.56;;;1.95;78.21
75681;BME280;64294;49.176;16.626;2023-03-08T06:02:04;97924.19;;;2.37;76.16
75681;BME280;64294;49.176;16.626;2023-03-08T06:04:29;97935.59;;;2.63;74.47
75681;BME280;64294;49.176;16.626;2023-03-08T06:06:55;97932.09;;;2.57;73.72
75681;BME280;64294;49.176;16.626;2023-03-08T06:09:20;97944.03;;;2.77;72.83
75681;BME280;64294;49.176;16.626;2023-03-08T06:11:46;97942.00;;;3.31;70.34
75681;BME280;64294;49.176;16.626;2023-03-08T06:14:11;97932.34;;;3.81;67.44
75681;BME280;64294;49.176;16.626;2023-03-08T06:16:36;97928.81;;;3.81;66.29
75681;BME280;64294;49.176;16.626;2023-03-08T06:19:02;97933.41;;;3.97;64.91
75681;BME280;64294;49.176;16.626;2023-03-08T06:21:27;97941.81;;;3.73;65.16
75681;BME280;64294;49.176;16.626;2023-03-08T06:23:53;97938.94;;;3.59;66.48
75681;BME280;64294;49.176;16.626;2023-03-08T06:26:18;97940.75;;;3.76;66.11
75681;BME280;64294;49.176;16.626;2023-03-08T06:28:44;97949.16;;;4.26;63.98
75681;BME280;64294;49.176;16.626;2023-03-08T06:31:12;97950.75;;;5.84;59.18
75681;BME280;64294;49.176;16.626;2023-03-08T06:33:38;97948.44;;;8.19;49.92
75681;BME280;64294;49.176;16.626;2023-03-08T06:36:10;97949.69;;;9.69;44.65
75681;BME280;64294;49.176;16.626;2023-03-08T06:38:38;97956.44;;;10.61;42.24
75681;BME280;64294;49.176;16.626;2023-03-08T06:41:04;97961.91;;;12.28;38.59
75681;BME280;64294;49.176;16.626;2023-03-08T06:43:30;97976.41;;;13.32;36.31
75681;BME280;64294;49.176;16.626;2023-03-08T06:45:56;97980.56;;;13.97;34.85
75681;BME280;64294;49.176;16.626;2023-03-08T06:48:22;97973.13;;;14.69;33.94
75681;BME280;64294;49.176;16.626;2023-03-08T06:50:47;97965.53;;;14.62;33.11
75681;BME280;64294;49.176;16.626;2023-03-08T06:53:13;97971.81;;;14.32;33.46
75681;BME280;64294;49.176;16.626;2023-03-08T06:55:39;97974.31;;;14.28;33.38
75681;BME280;64294;49.176;16.626;2023-03-08T06:58:06;97976.03;;;14.91;32.40
75681;BME280;64294;49.176;16.626;2023-03-08T07:00:32;97974.00;;;15.12;32.03
75681;BME280;64294;49.176;16.626;2023-03-08T07:02:57;97981.09;;;15.64;30.19
75681;BME280;64294;49.176;16.626;2023-03-08T07:05:23;97987.84;;;16.23;30.02
75681;BME280;64294;49.176;16.626;2023-03-08T07:07:48;97984.41;;;15.51;29.83
75681;BME280;64294;49.176;16.626;2023-03-08T07:10:15;97985.59;;;14.66;31.36
75681;BME280;64294;49.176;16.626;2023-03-08T07:12:42;97987.09;;;13.90;33.01
75681;BME280;64294;49.176;16.626;2023-03-08T07:15:11;97982.50;;;15.12;31.56
75681;BME280;64294;49.176;16.626;2023-03-08T07:17:39;97976.09;;;15.95;29.62
75681;BME280;64294;49.176;16.626;2023-03-08T07:20:06;97983.66;;;16.24;29.46
75681;BME280;64294;49.176;16.626;2023-03-08T07:22:32;97971.78;;;15.94;29.80
75681;BME280;64294;49.176;16.626;2023-03-08T07:24:57;97975.22;;;15.40;30.22
75681;BME280;64294;49.176;16.626;2023-03-08T07:27:23;97977.44;;;15.42;30.45
75681;BME280;64294;49.176;16.626;2023-03-08T07:29:49;97980.53;;;16.86;29.13
75681;BME280;64294;49.176;16.626;2023-03-08T07:32:17;97970.06;;;16.77;28.47
75681;BME280;64294;49.176;16.626;2023-03-08T07:34:43;97963.75;;;19.22;26.14
75681;BME280;64294;49.176;16.626;2023-03-08T07:37:13;97964.84;;;19.70;24.69
75681;BME280;64294;49.176;16.626;2023-03-08T07:39:38;97960.22;;;19.63;25.09
75681;BME280;64294;49.176;16.626;2023-03-08T07:42:04;97961.78;;;19.93;24.09
75681;BME280;64294;49.176;16.626;2023-03-08T07:44:29;97960.13;;;20.18;23.33
75681;BME280;64294;49.176;16.626;2023-03-08T07:46:54;97962.03;;;19.03;24.29
75681;BME280;64294;49.176;16.626;2023-03-08T07:49:20;97956.25;;;20.11;23.14
75681;BME280;64294;49.176;16.626;2023-03-08T07:51:47;97959.47;;;21.08;22.38
75681;BME280;64294;49.176;16.626;2023-03-08T07:54:13;97963.00;;;20.04;22.64
75681;BME280;64294;49.176;16.626;2023-03-08T07:56:39;97957.47;;;20.65;22.62
75681;BME280;64294;49.176;16.626;2023-03-08T07:59:04;97967.84;;;21.20;21.75
75681;BME280;64294;49.176;16.626;2023-03-08T08:01:30;97974.00;;;22.62;20.52
75681;BME280;64294;49.176;16.626;2023-03-08T08:03:58;97976.22;;;22.99;19.86
75681;BME280;64294;49.176;16.626;2023-03-08T08:06:24;97973.50;;;21.49;20.59
75681;BME280;64294;49.176;16.626;2023-03-08T08:08:51;97967.44;;;21.41;20.86
75681;BME280;64294;49.176;16.626;2023-03-08T08:11:18;97958.28;;;22.45;20.04
75681;BME280;64294;49.176;16.626;2023-03-08T08:13:44;97964.66;;;21.27;20.77
75681;BME280;64294;49.176;16.626;2023-03-08T08:16:14;97963.78;;;20.48;22.11
75681;BME280;64294;49.176;16.626;2023-03-08T08:18:40;97957.81;;;21.03;21.72
75681;BME280;64294;49.176;16.626;2023-03-08T08:21:14;97943.66;;;20.16;22.56
75681;BME280;64294;49.176;16.626;2023-03-08T08:23:41;97930.88;;;20.17;22.43
75681;BME280;64294;49.176;16.626;2023-03-08T08:26:09;97932.09;;;19.99;22.75
75681;BME280;64294;49.176;16.626;2023-03-08T08:28:37;97931.97;;;20.40;22.78
75681;BME280;64294;49.176;16.626;2023-03-08T08:31:06;97939.25;;;22.52;20.13
75681;BME280;64294;49.176;16.626;2023-03-08T08:33:32;97936.06;;;21.59;20.97
75681;BME280;64294;49.176;16.626;2023-03-08T08:35:58;97942.03;;;22.32;20.00
75681;BME280;64294;49.176;16.626;2023-03-08T08:38:25;97959.44;;;21.71;20.34
75681;BME280;64294;49.176;16.626;2023-03-08T08:40:50;97950.78;;;22.36;20.51
75681;BME280;64294;49.176;16.626;2023-03-08T08:43:16;97957.25;;;21.54;20.55
75681;BME280;64294;49.176;16.626;2023-03-08T08:45:46;97970.56;;;20.41;22.03
75681;BME280;64294;49.176;16.626;2023-03-08T08:48:12;97970.72;;;21.35;21.26
75681;BME280;64294;49.176;16.626;2023-03-08T08:50:41;97951.81;;;22.80;19.09
75681;BME280;64294;49.176;16.626;2023-03-08T08:53:08;97941.69;;;22.42;19.61
75681;BME280;64294;49.176;16.626;2023-03-08T08:55:34;97940.22;;;23.71;18.26
75681;BME280;64294;49.176;16.626;2023-03-08T08:58:01;97934.94;;;24.27;18.06
75681;BME280;64294;49.176;16.626;2023-03-08T09:00:26;97935.31;;;22.25;19.54
75681;BME280;64294;49.176;16.626;2023-03-08T09:02:52;97937.28;;;21.87;19.76
75681;BME280;64294;49.176;16.626;2023-03-08T09:05:17;97936.59;;;21.55;20.24
75681;BME280;64294;49.176;16.626;2023-03-08T09:07:43;97932.66;;;19.40;21.94
75681;BME280;64294;49.176;16.626;2023-03-08T09:10:09;97945.22;;;19.90;22.30
75681;BME280;64294;49.176;16.626;2023-03-08T09:12:34;97944.59;;;19.64;22.76
75681;BME280;64294;49.176;16.626;2023-03-08T09:15:03;97947.72;;;17.88;24.83
75681;BME280;64294;49.176;16.626;2023-03-08T09:17:28;97935.88;;;18.17;24.72
75681;BME280;64294;49.176;16.626;2023-03-08T09:19:54;97941.22;;;17.39;25.26
75681;BME280;64294;49.176;16.626;2023-03-08T09:22:20;97937.91;;;15.54;27.88
75681;BME280;64294;49.176;16.626;2023-03-08T09:24:47;97937.69;;;15.09;28.72
75681;BME280;64294;49.176;16.626;2023-03-08T09:27:13;97933.34;;;15.70;28.83
75681;BME280;64294;49.176;16.626;2023-03-08T09:29:38;97943.75;;;16.31;27.72
75681;BME280;64294;49.176;16.626;2023-03-08T09:32:04;97938.25;;;15.17;28.65
75681;BME280;64294;49.176;16.626;2023-03-08T09:34:30;97938.09;;;16.10;27.66
75681;BME280;64294;49.176;16.626;2023-03-08T09:36:56;97932.16;;;16.27;27.82
75681;BME280;64294;49.176;16.626;2023-03-08T09:39:22;97924.88;;;15.39;28.86
75681;BME280;64294;49.176;16.626;2023-03-08T09:41:48;97923.84;;;15.87;28.43
75681;BME280;64294;49.176;16.626;2023-03-08T09:52:44;97903.22;;;13.44;32.30
75681;BME280;64294;49.176;16.626;2023-03-08T09:57:53;97892.84;;;14.14;31.58
75681;BME280;64294;49.176;16.626;2023-03-08T10:00:34;97894.31;;;13.48;31.75
75681;BME280;64294;49.176;16.626;2023-03-08T10:03:26;97890.94;;;13.78;32.07
75681;BME280;64294;49.176;16.626;2023-03-08T10:09:02;97883.19;;;12.30;33.83
75681;BME280;64294;49.176;16.626;2023-03-08T10:12:00;97878.78;;;11.58;35.30
75681;BME280;64294;49.176;16.626;2023-03-08T10:14:31;97870.50;;;11.60;35.88
75681;BME280;64294;49.176;16.626;2023-03-08T10:17:07;97874.53;;;11.32;36.79
75681;BME280;64294;49.176;16.626;2023-03-08T10:19:41;97877.44;;;10.82;36.94
75681;BME280;64294;49.176;16.626;2023-03-08T10:22:30;97878.50;;;10.37;37.85
75681;BME280;64294;49.176;16.626;2023-03-08T10:25:01;97874.69;;;10.10;38.97
75681;BME280;64294;49.176;16.626;2023-03-08T10:27:33;97876.31;;;9.80;40.34
75681;BME280;64294;49.176;16.626;2023-03-08T10:30:12;97865.44;;;9.36;41.65
75681;BME280;64294;49.176;16.626;2023-03-08T10:32:43;97860.13;;;9.56;41.84
75681;BME280;64294;49.176;16.626;2023-03-08T10:35:08;97857.28;;;9.71;41.07
75681;BME280;64294;49.176;16.626;2023-03-08T10:37:34;97849.50;;;9.94;41.63
75681;BME280;64294;49.176;16.626;2023-03-08T10:40:01;97860.28;;;9.65;41.81
75681;BME280;64294;49.176;16.626;2023-03-08T10:42:30;97859.13;;;9.13;42.65
75681;BME280;64294;49.176;16.626;2023-03-08T10:45:02;97847.06;;;9.51;42.05
75681;BME280;64294;49.176;16.626;2023-03-08T10:47:34;97844.84;;;9.41;42.38
75681;BME280;64294;49.176;16.626;2023-03-08T10:50:21;97834.53;;;9.52;41.75
75681;BME280;64294;49.176;16.626;2023-03-08T10:52:49;97834.72;;;9.54;41.69
75681;BME280;64294;49.176;16.626;2023-03-08T10:55:17;97826.03;;;9.19;43.16
75681;BME280;64294;49.176;16.626;2023-03-08T10:57:52;97820.13;;;9.48;42.90
75681;BME280;64294;49.176;16.626;2023-03-08T11:02:46;97810.34;;;9.64;42.59
75681;BME280;64294;49.176;16.626;2023-03-08T11:05:32;97794.31;;;9.57;43.07
75681;BME280;64294;49.176;16.626;2023-03-08T11:07:58;97786.69;;;9.50;42.95
75681;BME280;64294;49.176;16.626;2023-03-08T11:10:26;97797.28;;;9.59;43.31
75681;BME280;64294;49.176;16.626;2023-03-08T11:27:46;97763.22;;;9.22;44.46
75681;BME280;64294;49.176;16.626;2023-03-08T11:33:21;97752.06;;;9.07;45.02
75681;BME280;64294;49.176;16.626;2023-03-08T11:36:11;97744.53;;;9.25;45.23
75681;BME280;64294;49.176;16.626;2023-03-08T11:38:39;97739.44;;;9.38;45.31
75681;BME280;64294;49.176;16.626;2023-03-08T11:41:21;97736.56;;;9.54;44.91
75681;BME280;64294;49.176;16.626;2023-03-08T11:46:52;97729.53;;;9.37;43.56
75681;BME280;64294;49.176;16.626;2023-03-08T11:57:36;97678.25;;;9.52;43.16
75681;BME280;64294;49.176;16.626;2023-03-08T12:00:11;97686.34;;;9.73;43.70
75681;BME280;64294;49.176;16.626;2023-03-08T12:02:42;97677.84;;;9.56;43.22
75681;BME280;64294;49.176;16.626;2023-03-08T12:07:45;97663.66;;;9.79;43.22
75681;BME280;64294;49.176;16.626;2023-03-08T12:13:35;97662.28;;;9.62;42.58
75681;BME280;64294;49.176;16.626;2023-03-08T12:16:01;97665.28;;;9.24;43.02
75681;BME280;64294;49.176;16.626;2023-03-08T12:24:24;97645.47;;;9.30;42.85
75681;BME280;64294;49.176;16.626;2023-03-08T12:27:10;97629.16;;;9.36;43.50
75681;BME280;64294;49.176;16.626;2023-03-08T12:32:24;97616.31;;;9.33;43.86
75681;BME280;64294;49.176;16.626;2023-03-08T12:35:03;97607.81;;;9.65;43.28
75681;BME280;64294;49.176;16.626;2023-03-08T12:37:29;97615.22;;;9.53;42.92
75681;BME280;64294;49.176;16.626;2023-03-08T12:40:24;97624.91;;;9.27;42.41
75681;BME280;64294;49.176;16.626;2023-03-08T12:42:50;97610.19;;;9.52;43.29
75681;BME280;64294;49.176;16.626;2023-03-08T12:50:29;97588.63;;;10.04;42.01
75681;BME280;64294;49.176;16.626;2023-03-08T12:52:55;97594.84;;;9.78;41.27
75681;BME280;64294;49.176;16.626;2023-03-08T12:55:27;97592.03;;;9.78;41.27
75681;BME280;64294;49.176;16.626;2023-03-08T12:57:58;97573.84;;;9.86;40.70
75681;BME280;64294;49.176;16.626;2023-03-08T13:00:34;97584.84;;;9.84;41.07
75681;BME280;64294;49.176;16.626;2023-03-08T13:05:35;97568.50;;;9.73;41.32
75681;BME280;64294;49.176;16.626;2023-03-08T13:16:51;97555.56;;;9.78;40.93
75681;BME280;64294;49.176;16.626;2023-03-08T13:19:22;97548.63;;;9.79;40.80
75681;BME280;64294;49.176;16.626;2023-03-08T13:29:28;97545.91;;;9.71;41.27
75681;BME280;64294;49.176;16.626;2023-03-08T13:31:54;97550.94;;;9.73;41.89
75681;BME280;64294;49.176;16.626;2023-03-08T13:36:51;97539.44;;;9.61;41.59
75681;BME280;64294;49.176;16.626;2023-03-08T13:39:26;97534.41;;;9.59;41.93
75681;BME280;64294;49.176;16.626;2023-03-08T13:41:52;97527.88;;;9.57;41.83
75681;BME280;64294;49.176;16.626;2023-03-08T13:44:29;97533.75;;;9.51;42.61
75681;BME280;64294;49.176;16.626;2023-03-08T13:47:01;97533.56;;;9.49;42.82
75681;BME280;64294;49.176;16.626;2023-03-08T13:49:31;97527.44;;;9.43;43.16
75681;BME280;64294;49.176;16.626;2023-03-08T13:51:59;97517.13;;;9.46;43.26
75681;BME280;64294;49.176;16.626;2023-03-08T13:54:26;97514.81;;;9.34;43.55
75681;BME280;64294;49.176;16.626;2023-03-08T13:57:05;97514.06;;;9.34;43.66
75681;BME280;64294;49.176;16.626;2023-03-08T13:59:32;97520.50;;;9.44;42.97
75681;BME280;64294;49.176;16.626;2023-03-08T14:01:58;97514.97;;;9.36;43.52
75681;BME280;64294;49.176;16.626;2023-03-08T14:04:27;97511.41;;;9.36;43.10
75681;BME280;64294;49.176;16.626;2023-03-08T14:06:54;97519.44;;;9.39;43.72
75681;BME280;64294;49.176;16.626;2023-03-08T14:09:20;97509.78;;;9.33;44.07
75681;BME280;64294;49.176;16.626;2023-03-08T14:12:01;97507.41;;;9.47;43.34
75681;BME280;64294;49.176;16.626;2023-03-08T14:14:34;97494.31;;;9.49;43.58
75681;BME280;64294;49.176;16.626;2023-03-08T14:17:01;97489.09;;;9.46;43.77
75681;BME280;64294;49.176;16.626;2023-03-08T14:19:33;97490.44;;;9.62;44.79
75681;BME280;64294;49.176;16.626;2023-03-08T14:22:09;97476.38;;;9.45;46.00
75681;BME280;64294;49.176;16.626;2023-03-08T14:24:35;97487.59;;;9.45;46.37
75681;BME280;64294;49.176;16.626;2023-03-08T14:27:04;97487.09;;;9.38;47.59
75681;BME280;64294;49.176;16.626;2023-03-08T14:29:31;97479.09;;;9.35;47.30